Time;durP1;ratioP1;P1;durP2;ratioP2;P2;SDS_P1;SDS_P2;PMS_P1;PMS_P2;Temp;Humidity;BMP_temperature;BMP_pressure;BME280_temperature;BME280_humidity;BME280_pressure;Samples;Min_cycle;Max_cycle;Signal;HPM_P1;HPM_P2
2022/07/24 00:00:39;;;;;;;14.10;10.32;;;;;;;21.57;100.00;99004.78;4432984;32;20088;-74
2022/07/24 00:03:08;;;;;;;12.20;9.88;;;;;;;21.35;100.00;98987.37;4432968;32;20081;-73
2022/07/24 00:05:34;;;;;;;12.98;10.32;;;;;;;21.62;100.00;99007.38;4430666;32;20075;-74
2022/07/24 00:08:00;;;;;;;17.27;9.55;;;;;;;21.32;100.00;98966.13;4431793;32;20034;-74
2022/07/24 00:10:27;;;;;;;14.30;8.95;;;;;;;21.53;100.00;99020.28;4416588;32;20056;-74
2022/07/24 00:12:53;;;;;;;10.85;9.52;;;;;;;21.59;100.00;99019.78;4432343;32;20044;-74
2022/07/24 00:15:19;;;;;;;13.45;8.43;;;;;;;21.62;100.00;99015.59;4418543;32;20092;-73
2022/07/24 00:17:46;;;;;;;11.63;9.65;;;;;;;21.57;100.00;99015.75;4431026;32;20090;-74
2022/07/24 00:20:12;;;;;;;12.90;10.27;;;;;;;21.34;100.00;98974.81;4432701;32;20090;-74
2022/07/24 00:22:38;;;;;;;9.85;8.68;;;;;;;21.25;100.00;98979.47;4417648;32;20340;-74
2022/07/24 00:25:06;;;;;;;11.82;9.02;;;;;;;21.29;100.00;98987.87;4432273;32;20052;-74
2022/07/24 00:27:32;;;;;;;15.00;10.68;;;;;;;21.50;100.00;99012.69;4432645;32;20031;-74
2022/07/24 00:29:58;;;;;;;12.73;9.88;;;;;;;21.59;100.00;99024.47;4432247;32;20428;-75
2022/07/24 00:32:25;;;;;;;11.15;8.70;;;;;;;21.56;100.00;99033.34;4428719;32;20045;-73
2022/07/24 00:34:51;;;;;;;11.27;9.73;;;;;;;21.37;100.00;98995.28;4432440;32;20034;-74
2022/07/24 00:37:17;;;;;;;14.38;9.45;;;;;;;21.40;100.00;98989.94;4432444;32;20089;-73
2022/07/24 00:39:45;;;;;;;10.18;8.35;;;;;;;21.58;100.00;99028.31;4432303;32;20075;-73
2022/07/24 00:42:12;;;;;;;13.25;9.48;;;;;;;21.37;100.00;98990.59;4415673;32;20153;-75
2022/07/24 00:44:38;;;;;;;15.77;8.68;;;;;;;21.53;100.00;99028.50;4432347;32;20089;-74
2022/07/24 00:47:05;;;;;;;13.25;9.30;;;;;;;21.39;100.00;99037.62;4416794;32;20431;-73
2022/07/24 00:49:31;;;;;;;13.80;9.40;;;;;;;21.11;100.00;99009.75;4432512;32;20038;-74
2022/07/24 00:51:57;;;;;;;12.57;9.02;;;;;;;21.30;100.00;99028.62;4430799;32;20387;-76
2022/07/24 00:54:24;;;;;;;9.80;8.25;;;;;;;21.14;100.00;99003.66;4418344;32;20068;-74
2022/07/24 00:56:53;;;;;;;8.93;8.02;;;;;;;21.25;100.00;99047.94;4432398;32;20099;-74
2022/07/24 00:59:20;;;;;;;10.32;8.30;;;;;;;21.25;100.00;99053.41;4432227;32;20030;-74
2022/07/24 01:01:47;;;;;;;11.27;8.60;;;;;;;20.92;100.00;99006.50;4432106;32;20054;-74
2022/07/24 01:04:14;;;;;;;13.32;8.32;;;;;;;21.05;100.00;99061.09;4429399;32;20043;-76
2022/07/24 01:06:44;;;;;;;9.07;7.80;;;;;;;20.77;100.00;99024.16;4432228;32;20076;-74
2022/07/24 01:09:11;;;;;;;18.65;9.60;;;;;;;20.67;100.00;99034.28;4431856;32;20038;-74
2022/07/24 01:11:38;;;;;;;12.55;8.20;;;;;;;20.88;100.00;99050.09;4432026;32;20091;-74
2022/07/24 01:14:06;;;;;;;11.98;8.73;;;;;;;20.32;100.00;98973.94;4430862;32;20110;-76
2022/07/24 01:16:34;;;;;;;10.77;8.13;;;;;;;20.85;100.00;99050.75;4431683;32;20146;-75
2022/07/24 01:19:00;;;;;;;16.08;8.55;;;;;;;20.90;100.00;99058.00;4432142;32;20056;-74
2022/07/24 01:21:26;;;;;;;11.52;8.60;;;;;;;20.73;100.00;99050.56;4429423;32;20060;-75
2022/07/24 01:23:53;;;;;;;11.88;8.90;;;;;;;20.35;100.00;98990.88;4431898;32;20423;-74
2022/07/24 01:26:19;;;;;;;14.27;8.27;;;;;;;20.80;100.00;99053.63;4430068;32;20052;-74
2022/07/24 01:28:46;;;;;;;10.38;8.25;;;;;;;20.75;100.00;99062.78;4417351;32;20180;-74
2022/07/24 01:31:13;;;;;;;9.38;7.28;;;;;;;20.01;100.00;98968.53;4431798;32;20046;-74
2022/07/24 01:33:39;;;;;;;10.77;7.87;;;;;;;20.22;100.00;99053.50;4431758;32;20103;-74
2022/07/24 01:36:05;;;;;;;16.27;8.25;;;;;;;20.05;100.00;99034.28;4416245;32;20049;-74
2022/07/24 01:38:32;;;;;;;10.93;7.62;;;;;;;20.41;100.00;99055.22;4428704;32;20389;-73
2022/07/24 01:40:58;;;;;;;10.70;7.85;;;;;;;20.22;100.00;99034.38;4414678;32;20062;-74
2022/07/24 01:43:24;;;;;;;13.73;7.32;;;;;;;20.17;100.00;99058.28;4431705;32;20034;-73
2022/07/24 01:45:51;;;;;;;18.10;7.65;;;;;;;20.03;100.00;99031.06;4432997;32;20046;-75
2022/07/24 01:48:24;;;;;;;9.63;7.15;;;;;;;20.09;100.00;99029.81;4420399;32;20420;-73
2022/07/24 01:50:51;;;;;;;8.60;7.12;;;;;;;19.93;100.00;99038.41;4434877;32;20050;-73
2022/07/24 01:53:17;;;;;;;7.62;6.60;;;;;;;19.98;100.00;99012.06;4433542;32;20325;-74
2022/07/24 01:55:43;;;;;;;10.02;7.22;;;;;;;20.01;100.00;99030.53;4420592;32;20322;-74
2022/07/24 01:58:10;;;;;;;10.25;6.87;;;;;;;20.15;100.00;99050.41;4434650;32;20030;-75
2022/07/24 02:00:36;;;;;;;17.17;8.52;;;;;;;20.11;100.00;99054.91;4433245;32;20051;-75
2022/07/24 02:03:03;;;;;;;10.93;6.90;;;;;;;19.51;100.00;98976.84;4434837;32;20042;-75
2022/07/24 02:05:31;;;;;;;18.08;7.00;;;;;;;19.69;100.00;99013.28;4433103;32;20050;-75
2022/07/24 02:07:59;;;;;;;13.05;7.47;;;;;;;19.83;100.00;99019.50;4433407;32;20428;-75
2022/07/24 02:10:27;;;;;;;14.13;8.32;;;;;;;20.12;100.00;99056.53;4432918;32;20073;-77
2022/07/24 02:12:54;;;;;;;13.57;8.07;;;;;;;20.10;100.00;99058.75;4433985;32;20101;-75
2022/07/24 02:15:21;;;;;;;12.05;6.80;;;;;;;19.87;100.00;99050.56;4434622;32;20034;-75
2022/07/24 02:17:49;;;;;;;16.95;7.40;;;;;;;19.62;100.00;99048.41;4434581;32;20060;-74
2022/07/24 02:20:16;;;;;;;10.13;7.20;;;;;;;19.56;100.00;99045.81;4432818;32;20046;-77
2022/07/24 02:22:43;;;;;;;9.80;7.05;;;;;;;19.41;100.00;99032.50;4420281;32;20795;-74
2022/07/24 02:25:10;;;;;;;18.48;8.32;;;;;;;19.50;100.00;99003.34;4434142;32;20044;-75
2022/07/24 02:27:37;;;;;;;9.60;7.85;;;;;;;19.76;100.00;99038.28;4434155;32;20087;-75
2022/07/24 02:30:05;;;;;;;13.23;8.48;;;;;;;19.59;100.00;99015.16;4434417;32;20042;-75
2022/07/24 02:32:31;;;;;;;9.43;8.32;;;;;;;19.55;100.00;99016.88;4432911;32;20048;-75
2022/07/24 02:34:58;;;;;;;10.68;7.62;;;;;;;19.67;100.00;99040.91;4434544;32;20432;-75
2022/07/24 02:37:24;;;;;;;15.48;7.50;;;;;;;19.19;100.00;98979.50;4434389;32;20030;-75
2022/07/24 02:39:50;;;;;;;13.27;7.53;;;;;;;19.35;100.00;99007.25;4434116;32;20078;-74
2022/07/24 02:42:17;;;;;;;16.52;7.70;;;;;;;19.14;100.00;98973.34;4432006;32;20064;-73
2022/07/24 02:44:44;;;;;;;11.50;6.72;;;;;;;19.45;100.00;99038.16;4434096;32;20045;-73
2022/07/24 02:47:10;;;;;;;9.25;6.97;;;;;;;19.19;100.00;99006.81;4434076;32;20030;-74
2022/07/24 02:49:36;;;;;;;10.15;7.37;;;;;;;19.30;100.00;98998.38;4434181;32;20042;-75
2022/07/24 02:52:03;;;;;;;9.35;7.00;;;;;;;19.38;100.00;99044.84;4433248;32;20034;-76
2022/07/24 02:54:30;;;;;;;9.00;7.07;;;;;;;19.27;100.00;99042.66;4430368;32;20476;-75
2022/07/24 02:56:56;;;;;;;14.27;7.45;;;;;;;19.09;100.00;99004.28;4433835;32;20072;-75
2022/07/24 02:59:23;;;;;;;10.25;6.87;;;;;;;19.24;100.00;99044.91;4434014;32;20035;-75
2022/07/24 03:01:55;;;;;;;13.23;7.05;;;;;;;19.32;100.00;99039.81;4433126;32;20034;-76
2022/07/24 03:04:23;;;;;;;9.85;7.03;;;;;;;19.19;100.00;99011.44;4431589;32;20090;-74
2022/07/24 03:06:49;;;;;;;14.23;6.87;;;;;;;19.13;100.00;99018.13;4420042;32;20037;-73
2022/07/24 03:09:15;;;;;;;15.50;7.60;;;;;;;19.05;100.00;99015.00;4433761;32;20037;-74
2022/07/24 03:11:42;;;;;;;10.07;6.55;;;;;;;19.09;100.00;99009.75;4431996;32;20046;-74
2022/07/24 03:14:08;;;;;;;10.27;7.07;;;;;;;19.29;100.00;99051.34;4432674;32;20042;-77
2022/07/24 03:16:34;;;;;;;11.80;7.50;;;;;;;19.15;100.00;99056.84;4432130;32;20432;-74
2022/07/24 03:19:01;;;;;;;16.87;6.00;;;;;;;18.68;100.00;98994.19;4430883;32;20049;-74
2022/07/24 03:21:27;;;;;;;12.57;7.10;;;;;;;19.07;100.00;99066.56;4419423;32;20075;-75
2022/07/24 03:23:53;;;;;;;7.03;6.37;;;;;;;18.98;100.00;99068.38;4433713;32;20031;-74
2022/07/24 03:26:20;;;;;;;12.15;6.10;;;;;;;18.79;100.00;99017.44;4419833;32;20040;-74
2022/07/24 03:28:47;;;;;;;6.25;5.72;;;;;;;19.11;100.00;99075.72;4431598;32;20042;-74
2022/07/24 03:31:13;;;;;;;20.90;6.53;;;;;;;19.13;100.00;99076.25;4432392;32;20800;-73
2022/07/24 03:33:39;;;;;;;6.50;5.78;;;;;;;18.93;100.00;99049.38;4418412;32;20081;-74
2022/07/24 03:36:06;;;;;;;9.88;6.37;;;;;;;18.99;100.00;99053.63;4433257;32;20030;-74
2022/07/24 03:38:32;;;;;;;8.45;7.45;;;;;;;19.16;100.00;99081.09;4430844;32;20030;-77
2022/07/24 03:40:59;;;;;;;15.18;6.78;;;;;;;19.09;100.00;99080.69;4432673;32;20090;-74
2022/07/24 03:43:25;;;;;;;7.65;6.35;;;;;;;19.03;100.00;99087.37;4433101;32;20096;-74
2022/07/24 03:45:51;;;;;;;9.50;6.18;;;;;;;18.81;100.00;99056.13;4433423;32;20579;-74
2022/07/24 03:48:18;;;;;;;9.88;6.30;;;;;;;18.99;100.00;99075.47;4417134;32;20357;-74
2022/07/24 03:50:44;;;;;;;7.78;5.82;;;;;;;19.11;100.00;99089.38;4431640;32;20046;-76
2022/07/24 03:53:11;;;;;;;9.52;6.35;;;;;;;19.17;100.00;99087.34;4433256;32;20068;-74
2022/07/24 03:55:38;;;;;;;6.80;5.90;;;;;;;19.22;100.00;99084.50;4433053;32;20042;-75
2022/07/24 03:58:04;;;;;;;9.00;5.45;;;;;;;18.86;100.00;99009.69;4433189;32;20046;-74
2022/07/24 04:00:31;;;;;;;13.95;6.95;;;;;;;19.18;100.00;99073.41;4433237;32;20056;-74
2022/07/24 04:02:57;;;;;;;11.40;6.37;;;;;;;19.17;100.00;99060.88;4417155;32;20056;-74
2022/07/24 04:05:23;;;;;;;14.18;5.72;;;;;;;19.00;100.00;99045.16;4431426;32;20107;-74
2022/07/24 04:07:50;;;;;;;9.02;6.12;;;;;;;19.06;100.00;99063.00;4431979;32;20056;-73
2022/07/24 04:10:16;;;;;;;7.18;5.78;;;;;;;19.06;100.00;99060.25;4433276;32;20042;-74
2022/07/24 04:12:43;;;;;;;18.92;5.85;;;;;;;19.30;100.00;99099.38;4417856;32;20379;-75
2022/07/24 04:15:09;;;;;;;16.05;5.30;;;;;;;19.05;100.00;99063.28;4431423;32;20095;-76
2022/07/24 04:17:43;;;;;;;8.55;5.30;;;;;;;19.19;100.00;99090.56;4432907;32;20854;-75
2022/07/24 04:20:10;;;;;;;9.98;5.82;;;;;;;19.19;100.00;99085.94;4430982;32;20085;-75
2022/07/24 04:22:36;;;;;;;13.50;5.22;;;;;;;19.46;100.00;99097.91;4433039;32;20477;-76
2022/07/24 04:25:03;;;;;;;9.45;5.37;;;;;;;19.51;100.00;99100.53;4433191;32;20038;-75
2022/07/24 04:27:29;;;;;;;14.13;5.10;;;;;;;19.45;100.00;99103.69;4429927;32;20367;-75
2022/07/24 04:29:57;;;;;;;7.70;5.65;;;;;;;19.10;100.00;99068.66;4431884;32;20075;-75
2022/07/24 04:32:25;;;;;;;7.65;4.60;;;;;;;19.22;100.00;99070.87;4417472;32;20116;-75
2022/07/24 04:34:51;;;;;;;14.10;4.05;;;;;;;19.14;100.00;99077.03;4431257;32;20379;-74
2022/07/24 04:37:17;;;;;;;10.95;4.93;;;;;;;19.21;100.00;99078.25;4432156;32;20046;-76
2022/07/24 04:39:44;;;;;;;5.97;4.10;;;;;;;19.11;100.00;99062.09;4431359;32;20459;-74
2022/07/24 04:42:10;;;;;;;6.95;3.65;;;;;;;19.23;100.00;99099.78;4432306;32;20058;-75
2022/07/24 04:44:36;;;;;;;7.95;4.05;;;;;;;19.11;100.00;99116.66;4432664;32;20038;-74
2022/07/24 04:47:03;;;;;;;4.03;3.50;;;;;;;19.20;100.00;99103.91;4415631;32;20378;-74
2022/07/24 04:49:29;;;;;;;8.90;3.12;;;;;;;18.99;100.00;99080.91;4432065;32;20081;-74
2022/07/24 04:51:55;;;;;;;3.65;3.28;;;;;;;19.02;100.00;99080.31;4430129;32;20037;-74
2022/07/24 04:54:22;;;;;;;8.68;3.75;;;;;;;19.05;100.00;99134.25;4432240;32;20479;-74
2022/07/24 04:56:49;;;;;;;2.42;2.25;;;;;;;19.02;100.00;99121.22;4432088;32;20095;-75
2022/07/24 04:59:15;;;;;;;8.82;3.55;;;;;;;19.12;100.00;99117.50;4430687;32;20053;-73
2022/07/24 05:01:41;;;;;;;4.90;2.10;;;;;;;19.23;100.00;99103.31;4431188;32;20465;-74
2022/07/24 05:04:08;;;;;;;2.25;1.95;;;;;;;19.02;100.00;99085.75;4430276;32;20362;-74
2022/07/24 05:06:35;;;;;;;2.25;2.03;;;;;;;18.84;100.00;99066.47;4430884;32;20035;-74
2022/07/24 05:09:01;;;;;;;3.17;1.92;;;;;;;18.90;100.00;99115.47;4432171;32;20060;-74
2022/07/24 05:11:27;;;;;;;2.28;2.08;;;;;;;19.00;100.00;99115.25;4432035;32;20038;-74
2022/07/24 05:13:54;;;;;;;7.07;2.10;;;;;;;19.07;100.00;99118.41;4430110;32;20068;-76
2022/07/24 05:16:20;;;;;;;3.95;2.10;;;;;;;19.12;100.00;99129.22;4431937;32;20059;-74
2022/07/24 05:18:46;;;;;;;1.95;1.85;;;;;;;19.27;100.00;99130.00;4432063;32;20039;-74
2022/07/24 05:21:14;;;;;;;2.65;1.80;;;;;;;19.04;100.00;99127.19;4431639;32;20386;-74
2022/07/24 05:23:40;;;;;;;3.47;1.40;;;;;;;18.97;100.00;99100.31;4432155;32;20071;-75
2022/07/24 05:26:06;;;;;;;1.95;1.67;;;;;;;19.24;100.00;99126.78;4429943;32;20037;-75
2022/07/24 05:28:33;;;;;;;1.87;1.75;;;;;;;19.06;100.00;99130.41;4430926;32;20411;-74
2022/07/24 05:30:59;;;;;;;4.50;2.20;;;;;;;18.82;100.00;99144.22;4432089;32;20113;-74
2022/07/24 05:33:26;;;;;;;6.87;1.67;;;;;;;18.88;100.00;99141.13;4431850;32;20092;-74
2022/07/24 05:35:52;;;;;;;2.72;1.92;;;;;;;18.65;100.00;99107.44;4431849;32;20447;-75
2022/07/24 05:38:18;;;;;;;1.65;1.55;;;;;;;18.97;100.00;99134.94;4413142;32;20026;-75
2022/07/24 05:40:45;;;;;;;5.40;2.30;;;;;;;19.09;100.00;99140.72;4430909;32;20026;-74
2022/07/24 05:43:11;;;;;;;5.72;3.03;;;;;;;18.94;100.00;99114.56;4431815;32;20045;-75
2022/07/24 05:45:37;;;;;;;3.83;2.42;;;;;;;19.01;100.00;99144.97;4431953;32;20039;-76
2022/07/24 05:48:04;;;;;;;2.60;1.77;;;;;;;19.20;100.00;99152.25;4430516;32;20050;-76
2022/07/24 05:50:31;;;;;;;1.95;1.83;;;;;;;19.04;100.00;99138.09;4417738;32;20034;-75
2022/07/24 05:52:57;;;;;;;3.03;1.90;;;;;;;19.15;100.00;99134.06;4431873;32;20108;-74
2022/07/24 05:55:23;;;;;;;5.90;2.30;;;;;;;19.30;100.00;99141.09;4416873;32;20383;-74
2022/07/24 05:57:50;;;;;;;2.20;2.05;;;;;;;19.29;100.00;99141.41;4431897;32;20042;-74
2022/07/24 06:00:20;;;;;;;3.60;2.55;;;;;;;18.96;100.00;99120.50;4429959;32;20042;-76
2022/07/24 06:02:46;;;;;;;7.03;2.08;;;;;;;18.93;100.00;99114.88;4430236;32;20050;-74
2022/07/24 06:05:14;;;;;;;3.28;1.80;;;;;;;19.28;100.00;99153.47;4430155;32;20030;-74
2022/07/24 06:07:41;;;;;;;1.92;1.83;;;;;;;19.24;100.00;99148.63;4432073;32;20371;-75
2022/07/24 06:10:08;;;;;;;1.83;1.73;;;;;;;19.24;100.00;99143.16;4430410;32;20477;-77
2022/07/24 06:12:34;;;;;;;2.70;1.85;;;;;;;19.43;100.00;99144.94;4432066;32;20038;-74
2022/07/24 06:15:01;;;;;;;4.07;2.83;;;;;;;19.45;100.00;99134.53;4418090;32;20082;-74
2022/07/24 06:17:27;;;;;;;2.17;1.80;;;;;;;19.41;100.00;99111.69;4431570;32;20078;-73
2022/07/24 06:19:54;;;;;;;2.47;1.95;;;;;;;19.70;100.00;99151.47;4418125;32;20015;-73
2022/07/24 06:22:20;;;;;;;1.98;1.83;;;;;;;19.68;100.00;99167.38;4430300;32;20064;-76
2022/07/24 06:24:46;;;;;;;4.53;1.70;;;;;;;19.31;100.00;99114.66;4432021;32;20054;-74
2022/07/24 06:27:13;;;;;;;4.28;1.58;;;;;;;19.75;100.00;99163.09;4431234;32;20034;-74
2022/07/24 06:29:39;;;;;;;1.65;1.55;;;;;;;19.53;100.00;99128.34;4431464;32;20081;-74
2022/07/24 06:32:06;;;;;;;4.53;1.90;;;;;;;19.79;100.00;99168.78;4429613;32;20067;-77
2022/07/24 06:34:32;;;;;;;1.42;1.33;;;;;;;19.65;100.00;99157.06;4433670;32;20367;-74
2022/07/24 06:36:58;;;;;;;3.42;1.30;;;;;;;19.63;100.00;99134.72;4434443;32;20070;-74
2022/07/24 06:39:25;;;;;;;4.47;1.70;;;;;;;19.54;100.00;99138.13;4434437;32;20064;-73
2022/07/24 06:41:51;;;;;;;2.60;1.17;;;;;;;19.47;100.00;99129.56;4435069;32;20056;-73
2022/07/24 06:44:21;;;;;;;1.27;1.17;;;;;;;19.75;100.00;99168.56;4422376;32;20052;-73
2022/07/24 06:46:48;;;;;;;1.12;1.12;;;;;;;19.68;100.00;99167.38;4437411;32;20042;-73
2022/07/24 06:49:14;;;;;;;3.80;0.90;;;;;;;19.62;100.00;99146.72;4436016;32;20056;-74
2022/07/24 06:51:40;;;;;;;3.90;1.10;;;;;;;19.71;100.00;99166.75;4435326;32;20067;-74
2022/07/24 06:54:07;;;;;;;1.77;1.40;;;;;;;19.71;100.00;99167.56;4418495;32;20046;-74
2022/07/24 06:56:33;;;;;;;4.72;0.98;;;;;;;19.82;100.00;99168.16;4418060;32;20071;-76
2022/07/24 06:58:59;;;;;;;7.43;1.90;;;;;;;19.71;100.00;99161.28;4434472;32;20090;-74
2022/07/24 07:01:26;;;;;;;3.55;1.70;;;;;;;19.57;100.00;99134.78;4434146;32;20034;-74
2022/07/24 07:03:55;;;;;;;2.78;1.35;;;;;;;19.53;100.00;99133.81;4433331;32;20056;-74
2022/07/24 07:06:22;;;;;;;1.98;1.42;;;;;;;19.63;100.00;99148.37;4433925;32;20030;-74
2022/07/24 07:08:49;;;;;;;2.92;1.70;;;;;;;19.63;100.00;99134.72;4431990;32;20408;-74
2022/07/24 07:11:15;;;;;;;3.12;1.40;;;;;;;19.70;100.00;99146.00;4433821;32;20083;-74
2022/07/24 07:13:41;;;;;;;3.15;1.48;;;;;;;19.90;100.00;99170.16;4420015;32;20018;-74
2022/07/24 07:16:08;;;;;;;2.05;1.30;;;;;;;19.86;100.00;99171.88;4431255;32;20056;-73
2022/07/24 07:18:36;;;;;;;2.37;0.90;;;;;;;19.65;100.00;99173.44;4434071;32;20052;-73
2022/07/24 07:21:03;;;;;;;1.12;1.12;;;;;;;19.70;100.00;99143.28;4430891;32;20069;-74
2022/07/24 07:23:30;;;;;;;2.78;1.77;;;;;;;20.01;100.00;99142.59;4432385;32;20097;-73
2022/07/24 07:25:56;;;;;;;1.55;1.30;;;;;;;20.00;100.00;99171.06;4433789;32;20386;-74
2022/07/24 07:28:22;;;;;;;8.82;2.00;;;;;;;19.52;100.00;99093.16;4432549;32;20124;-73
2022/07/24 07:30:49;;;;;;;1.33;1.23;;;;;;;20.08;100.00;99176.56;4432398;32;20077;-75
2022/07/24 07:33:15;;;;;;;2.60;2.03;;;;;;;19.87;100.00;99138.00;4433263;32;20050;-74
2022/07/24 07:35:41;;;;;;;1.62;1.52;;;;;;;20.22;100.00;99173.78;4433818;32;20052;-74
2022/07/24 07:38:08;;;;;;;2.30;1.17;;;;;;;20.35;100.00;99176.78;4431132;32;20038;-74
2022/07/24 07:40:34;;;;;;;1.77;1.33;;;;;;;20.52;100.00;99165.97;4433737;32;20034;-74
2022/07/24 07:43:01;;;;;;;4.78;2.00;;;;;;;20.38;100.00;99176.16;4431386;32;20089;-75
2022/07/24 07:45:28;;;;;;;6.10;2.03;;;;;;;20.51;100.00;99147.94;4433373;32;20438;-73
2022/07/24 07:47:54;;;;;;;4.85;1.48;;;;;;;20.44;100.00;99177.66;4433214;32;20056;-73
2022/07/24 07:50:20;;;;;;;11.98;2.00;;;;;;;20.14;100.00;99147.22;4431822;32;20390;-74
2022/07/24 07:52:47;;;;;;;2.40;1.80;;;;;;;20.24;100.00;99148.88;4433387;32;20053;-74
2022/07/24 07:55:13;;;;;;;6.70;1.42;;;;;;;20.16;100.00;99163.31;4431528;32;20038;-74
2022/07/24 07:57:41;;;;;;;3.50;1.67;;;;;;;20.20;100.00;99124.09;4430519;32;20543;-75
2022/07/24 08:00:08;;;;;;;1.77;1.20;;;;;;;20.22;100.00;99187.47;4432895;32;20051;-75
2022/07/24 08:02:37;;;;;;;1.20;1.20;;;;;;;20.60;100.00;99186.25;4433162;32;20030;-74
2022/07/24 08:05:05;;;;;;;1.15;1.02;;;;;;;20.61;100.00;99188.69;4431810;32;20098;-74
2022/07/24 08:07:32;;;;;;;2.50;0.82;;;;;;;20.76;100.00;99205.84;4417178;32;20030;-74
2022/07/24 08:09:58;;;;;;;5.78;1.05;;;;;;;20.60;100.00;99205.41;4433579;32;20034;-74
2022/07/24 08:12:25;;;;;;;3.00;1.10;;;;;;;20.67;100.00;99190.19;4432995;32;20367;-74
2022/07/24 08:14:51;;;;;;;1.62;1.25;;;;;;;20.63;100.00;99171.97;4432962;32;20038;-73
2022/07/24 08:17:17;;;;;;;6.50;1.10;;;;;;;20.70;100.00;99160.63;4430694;32;20056;-74
2022/07/24 08:19:45;;;;;;;0.90;0.90;;;;;;;20.90;100.00;99195.66;4433082;32;20058;-74
2022/07/24 08:22:12;;;;;;;1.02;0.90;;;;;;;20.82;100.00;99174.50;4430517;32;20060;-74
2022/07/24 08:24:39;;;;;;;3.55;0.90;;;;;;;20.80;100.00;99195.91;4432946;32;20034;-73
2022/07/24 08:27:06;;;;;;;1.65;1.35;;;;;;;20.66;100.00;99202.28;4432259;32;20444;-75
2022/07/24 08:29:33;;;;;;;9.65;1.30;;;;;;;20.75;100.00;99215.19;4417987;32;20335;-73
2022/07/24 08:31:59;;;;;;;1.60;1.50;;;;;;;20.31;100.00;99141.88;4432553;32;20042;-73
2022/07/24 08:34:25;;;;;;;1.02;0.75;;;;;;;21.05;100.00;99219.06;4432881;32;20050;-74
2022/07/24 08:36:52;;;;;;;1.00;1.00;;;;;;;20.60;100.00;99175.31;4432896;32;20056;-74
2022/07/24 08:39:18;;;;;;;0.90;0.68;;;;;;;20.78;100.00;99181.75;4431932;32;20052;-76
2022/07/24 08:41:45;;;;;;;0.95;0.80;;;;;;;20.61;100.00;99187.88;4431816;32;20076;-73
2022/07/24 08:44:12;;;;;;;2.83;1.30;;;;;;;20.45;100.00;99154.66;4429636;32;20675;-75
2022/07/24 08:46:40;;;;;;;1.15;0.77;;;;;;;21.12;100.00;99202.19;4418141;32;20014;-75
2022/07/24 08:49:10;;;;;;;3.17;1.92;;;;;;;20.88;100.00;99186.13;4432531;32;20071;-74
2022/07/24 08:51:39;;;;;;;4.87;0.80;;;;;;;20.92;100.00;99209.81;4430252;32;20038;-74
2022/07/24 08:54:07;;;;;;;2.22;2.05;;;;;;;21.18;100.00;99222.81;4431626;32;20068;-74
2022/07/24 08:56:36;;;;;;;2.35;1.75;;;;;;;20.98;100.00;99153.84;4432451;32;20406;-74
2022/07/24 08:59:03;;;;;;;1.15;1.10;;;;;;;21.11;100.00;99216.97;4432253;32;20089;-74
2022/07/24 09:01:29;;;;;;;5.05;1.33;;;;;;;20.93;100.00;99224.31;4430644;32;20345;-75
2022/07/24 09:03:56;;;;;;;4.15;1.42;;;;;;;20.96;100.00;99227.22;4431421;32;20077;-73
2022/07/24 09:06:22;;;;;;;1.00;1.00;;;;;;;20.86;100.00;99200.13;4432113;32;20046;-73
2022/07/24 09:09:04;;;;;;;4.70;1.10;;;;;;;21.00;100.00;99189.91;4432140;32;20194;-74
2022/07/24 09:11:36;;;;;;;1.27;1.27;;;;;;;21.24;100.00;99216.09;4431132;32;20107;-76
2022/07/24 09:16:48;;;;;;;1.77;1.30;;;;;;;21.47;100.00;99229.69;4430278;32;20056;-73
2022/07/24 09:19:16;;;;;;;3.87;1.30;;;;;;;21.47;100.00;99235.19;4431109;32;20056;-75
2022/07/24 09:21:43;;;;;;;1.10;1.10;;;;;;;21.37;100.00;99219.84;4428708;32;20340;-73
2022/07/24 09:24:15;;;;;;;0.90;0.90;;;;;;;21.51;100.00;99233.47;4431694;32;20364;-73
2022/07/24 09:26:49;;;;;;;5.00;1.70;;;;;;;21.52;100.00;99237.78;4431339;32;20037;-73
2022/07/24 09:29:17;;;;;;;1.30;1.20;;;;;;;21.65;100.00;99230.56;4426726;32;20056;-74
2022/07/24 09:31:59;;;;;;;2.05;1.23;;;;;;;21.34;100.00;99245.91;4429644;32;20060;-74
2022/07/24 09:34:29;;;;;;;3.60;1.17;;;;;;;21.31;100.00;99243.81;4415185;32;20403;-74
2022/07/24 09:37:00;;;;;;;2.90;1.52;;;;;;;21.19;100.00;99240.88;4430087;32;20060;-74
2022/07/24 09:39:28;;;;;;;;;;;;;;;21.08;100.00;99215.69;4417236;32;20330;-74
2022/07/24 09:41:57;;;;;;;4.55;1.30;;;;;;;21.44;100.00;99246.75;4431306;32;19929;-74
2022/07/24 09:44:23;;;;;;;0.82;0.82;;;;;;;21.40;100.00;99206.31;4431855;32;20042;-74
2022/07/24 09:47:01;;;;;;;2.60;1.20;;;;;;;21.70;100.00;99231.25;4430882;32;20063;-75
2022/07/24 09:49:28;;;;;;;1.40;1.20;;;;;;;21.82;100.00;99238.03;4431946;32;20035;-74
2022/07/24 09:52:14;;;;;;;2.75;1.08;;;;;;;21.93;100.00;99214.69;4432113;32;20052;-74
2022/07/24 09:54:50;;;;;;;4.97;1.58;;;;;;;22.10;100.00;99231.16;4415895;32;20066;-74
2022/07/24 09:57:20;;;;;;;2.37;1.27;;;;;;;22.19;100.00;99227.59;4429805;32;20068;-74
2022/07/24 09:59:49;;;;;;;1.08;0.93;;;;;;;22.42;100.00;99239.25;4429532;32;20059;-74
2022/07/24 10:02:17;;;;;;;0.95;0.95;;;;;;;22.24;100.00;99208.22;4428585;32;20030;-76
2022/07/24 10:04:45;;;;;;;1.10;1.10;;;;;;;21.64;100.00;99180.47;4427395;32;20058;-74
2022/07/24 10:07:15;;;;;;;0.98;0.98;;;;;;;21.95;100.00;99210.50;4433051;32;20044;-73
2022/07/24 10:09:44;;;;;;;1.00;1.00;;;;;;;21.77;100.00;99195.16;4434458;32;20103;-74
2022/07/24 10:12:13;;;;;;;5.68;0.88;;;;;;;22.14;100.00;99226.63;4434554;32;20090;-74
2022/07/24 10:14:41;;;;;;;1.25;0.90;;;;;;;22.24;99.19;99202.75;4433352;32;20436;-73
2022/07/24 10:17:09;;;;;;;1.45;0.85;;;;;;;22.44;100.00;99224.06;4434717;32;20042;-73
2022/07/24 10:19:42;;;;;;;2.35;1.08;;;;;;;22.38;100.00;99244.56;4434613;32;20108;-73
2022/07/24 10:22:20;;;;;;;4.57;1.00;;;;;;;22.13;100.00;99246.16;4434615;32;20363;-73
2022/07/24 10:25:07;;;;;;;1.55;0.90;;;;;;;22.21;100.00;99242.59;4432172;32;20453;-74
2022/07/24 10:27:38;;;;;;;2.65;0.95;;;;;;;21.86;100.00;99217.06;4432300;32;20083;-74
2022/07/24 10:30:10;;;;;;;3.15;1.00;;;;;;;22.35;100.00;99241.66;4432253;32;20038;-74
2022/07/24 10:32:37;;;;;;;2.08;1.10;;;;;;;22.23;100.00;99209.37;4434433;32;20104;-74
2022/07/24 10:35:13;;;;;;;3.70;1.50;;;;;;;22.62;100.00;99235.03;4433744;32;20046;-74
2022/07/24 10:38:03;;;;;;;6.65;0.90;;;;;;;22.78;97.01;99235.31;4432937;32;20423;-76
2022/07/24 10:40:32;;;;;;;4.75;1.15;;;;;;;22.49;97.59;99236.81;4431292;32;20071;-74
2022/07/24 10:43:04;;;;;;;3.47;1.48;;;;;;;22.20;97.09;99218.25;4434299;32;20071;-74
2022/07/24 10:45:51;;;;;;;2.25;1.10;;;;;;;22.62;96.98;99240.50;4432463;32;20111;-76
2022/07/24 10:48:20;;;;;;;1.20;1.10;;;;;;;22.81;97.00;99238.22;4418172;32;20038;-74
2022/07/24 10:53:46;;;;;;;2.17;0.93;;;;;;;22.95;96.98;99248.22;4432818;32;20063;-73
2022/07/24 10:56:26;;;;;;;1.67;1.10;;;;;;;22.39;98.35;99226.19;4433858;32;20076;-73
2022/07/24 10:58:52;;;;;;;0.80;0.80;;;;;;;22.76;98.57;99235.66;4430329;32;20390;-75
2022/07/24 11:01:44;;;;;;;1.95;0.90;;;;;;;23.18;91.20;99238.63;4434043;32;20079;-74
2022/07/24 11:04:19;;;;;;;1.65;1.15;;;;;;;23.20;92.41;99206.16;4419318;32;20437;-74
2022/07/24 11:06:47;;;;;;;2.78;1.90;;;;;;;23.93;86.14;99238.13;4419151;32;20030;-74
2022/07/24 11:09:16;;;;;;;0.90;0.90;;;;;;;23.77;85.80;99239.78;4433790;32;20050;-73
2022/07/24 11:12:03;;;;;;;1.27;1.27;;;;;;;23.38;87.29;99219.81;4433936;32;20082;-73
2022/07/24 11:14:36;;;;;;;4.60;2.53;;;;;;;23.46;88.38;99218.94;4418688;32;20116;-73
2022/07/24 11:17:44;;;;;;;2.50;0.82;;;;;;;23.48;86.52;99244.16;4433414;32;20042;-74
2022/07/24 11:20:13;;;;;;;1.85;1.52;;;;;;;24.05;85.90;99234.62;4405094;32;20052;-74
2022/07/24 11:22:47;;;;;;;1.67;0.98;;;;;;;24.64;74.48;99206.13;4433817;32;20485;-73
2022/07/24 11:25:20;;;;;;;0.80;0.80;;;;;;;24.91;73.04;99256.25;4431974;32;20382;-75
2022/07/24 11:27:51;;;;;;;1.58;1.48;;;;;;;25.23;67.57;99215.19;4419936;32;20026;-74
2022/07/24 11:30:18;;;;;;;;;;;;;;;25.57;61.85;99246.25;4417690;32;20030;-73
2022/07/24 11:32:45;;;;;;;4.43;0.95;;;;;;;26.05;60.77;99249.31;4433991;32;19944;-74